Nearby METAR Reports

 

KAUS - Austin, Texas, USA
Distance from station: WNW 16mi, 26km
Updated: Tue, 28-Jan-2020 8:18am CST
Mist, Overcast
Mist, Overcast
 Wind from calm
Wind: Calm
Temperature: 55°F , 13°C
Dew Point: 54°F , 12°C
Humidity: 94%
Barometer: 29.90 inHg , 1012.5 hPa
Summary: Mist
Clouds: Overcast
Visibility: 5 miles , 8 km
Cloud details: Overcast 400 ft
2020/01/28 14:18 KAUS 281418Z 00000KT 5SM BR OVC004 13/12 A2990 RMK AO2 T01330122
KEDC - Austin Exec, Texas, USA
Distance from station: NNW 21mi, 34km
Updated: Tue, 28-Jan-2020 8:15am CST
Mist, Overcast
Mist, Overcast
 Wind from SSE
Wind: SSE 6 mph , 9 km/h
Temperature: 54°F , 12°C
Dew Point: 54°F , 12°C
Humidity: 100%
Barometer: 29.91 inHg , 1012.9 hPa
Summary: Mist
Clouds: Overcast
Visibility: 2 miles , 3 km
Cloud details: Overcast 400 ft
2020/01/28 14:15 KEDC 281415Z AUTO 15005KT 2SM BR OVC004 12/12 A2991 RMK AO2
 
KATT - Austin/Mabry, Texas, USA
Distance from station: NW 25mi, 39km
Updated: Tue, 28-Jan-2020 8:13am CST
Mist, Overcast
Mist, Overcast
 Wind from SE
Wind: SE 8 mph , 13 km/h
Temperature: 55°F , 13°C
Dew Point: 54°F , 12°C
Humidity: 94%
Barometer: 29.91 inHg , 1012.9 hPa
Summary: Mist
Clouds: Overcast
Visibility: 2 miles , 3 km
Cloud details: Overcast 300 ft
2020/01/28 14:13 KATT 281413Z AUTO 14007KT 120V190 2SM BR OVC003 13/12 A2991 RMK AO2 T01280117
KGYB - Giddings-Lee, Texas, USA
Distance from station: E 27mi, 43km
Updated: Tue, 28-Jan-2020 8:15am CST
Light rain, Overcast
Light rain, Overcast
 Wind from SE
Wind: SE 9 mph , 15 km/h
Temperature: 50°F , 10°C
Wind Chill: 46°F , 8°C
Dew Point: 50°F , 10°C
Humidity: 100%
Barometer: 29.92 inHg , 1013.2 hPa
Summary: Light rain
Clouds: Overcast
Visibility: 2 miles , 3 km
Cloud details: Mostly cloudy 300 ft
Mostly cloudy 1500 ft
Overcast 9500 ft
2020/01/28 14:15 KGYB 281415Z AUTO 13008KT 2SM -RA BKN003 BKN015 OVC095 10/10 A2992 RMK AO2 P0001 T00990096
 
KHYI - San Marcos, Texas, USA
Distance from station: WSW 31mi, 49km
Updated: Tue, 28-Jan-2020 7:56am CST
Mist, Overcast
Mist, Overcast
 Wind from S
Wind: S 6 mph , 9 km/h
Temperature: 55°F , 13°C
Dew Point: 54°F , 12°C
Humidity: 94%
Barometer: 29.91 inHg , 1012.9 hPa
Summary: Mist
Clouds: Overcast
Visibility: 4 miles , 6 km
Cloud details: Overcast 400 ft
2020/01/28 13:56 KHYI 281356Z 18005KT 4SM BR OVC004 13/12 A2991 RMK AO2 SLP125 T01280122
K3T5 - La Grange, Texas, USA
Distance from station: ESE 32mi, 52km
Updated: Tue, 28-Jan-2020 8:15am CST
Light drizzle, Overcast
Light drizzle, Overcast
 Wind from ESE
Wind: ESE 5 mph , 7 km/h
Temperature: 55°F , 13°C
Dew Point: 55°F , 13°C
Humidity: 100%
Barometer: 29.92 inHg , 1013.2 hPa
Summary: Light Drizzle
Clouds: Overcast
Visibility: 2 1/2 miles , 4 km
Cloud details: Mostly cloudy 600 ft
Overcast 6000 ft
2020/01/28 14:15 K3T5 281415Z AUTO 11004KT 2 1/2SM -DZ BKN006 OVC060 13/13 A2992 RMK AO2 P0001 T01250125
 
KT20 - Gonzales Muni, Texas, USA
Distance from station: S 41mi, 67km
Updated: Tue, 28-Jan-2020 8:15am CST
Mist, Overcast
Mist, Overcast
 Wind from E
Wind: E 8 mph , 13 km/h
Temperature: 55°F , 13°C
Dew Point: 55°F , 13°C
Humidity: 100%
Barometer: 29.91 inHg , 1012.9 hPa
Summary: Mist
Clouds: Overcast
Visibility: 3 miles , 5 km
Cloud details: Mostly cloudy 400 ft
Overcast 3400 ft
2020/01/28 14:15 KT20 281415Z AUTO 10007KT 3SM BR BKN004 OVC034 13/13 A2991 RMK AO2 T01300129
KRYW - Lago Vista, Texas, USA
Distance from station: NW 42mi, 67km
Updated: Tue, 28-Jan-2020 8:15am CST
Fog, Overcast
Fog, Overcast
 Wind from S
Wind: S 3 mph , 6 km/h
Temperature: 54°F , 12°C
Dew Point: 54°F , 12°C
Humidity: 100%
Barometer: 29.91 inHg , 1012.9 hPa
Summary: Fog
Clouds: Overcast
Visibility: less than 1/4 mile , 0.4 km
Cloud details: Overcast 100 ft
2020/01/28 14:15 KRYW 281415Z AUTO 18003KT M1/4SM FG OVC001 12/12 A2991 RMK AO2 T01170117
 
KGTU - Georgetown, Texas, USA
Distance from station: NNW 42mi, 68km
Updated: Tue, 28-Jan-2020 8:21am CST
Mist, Overcast
Mist, Overcast
 Wind from SSE
Wind: SSE 7 mph , 11 km/h
Temperature: 54°F , 12°C
Dew Point: 54°F , 12°C
Humidity: 100%
Barometer: 29.92 inHg , 1013.2 hPa
Summary: Mist
Clouds: Overcast
Visibility: 1 1/2 miles , 2.4 km
Cloud details: Overcast 300 ft
2020/01/28 14:21 KGTU 281421Z 16006KT 1 1/2SM BR OVC003 12/12 A2992 RMK AO2 SFC VIS 3
KBAZ - New Braunfels, Texas, USA
Distance from station: SW 46mi, 74km
Updated: Tue, 28-Jan-2020 8:13am CST
Mist, Overcast
Mist, Overcast
 Wind from SE
Wind: SE 6 mph , 9 km/h
Temperature: 55°F , 13°C
Dew Point: 54°F , 12°C
Humidity: 94%
Barometer: 29.91 inHg , 1012.9 hPa
Summary: Mist
Clouds: Overcast
Visibility: 1 3/4 miles , 2.8 km
Cloud details: Overcast 200 ft
2020/01/28 14:13 KBAZ 281413Z 14005KT 1 3/4SM BR OVC002 13/12 A2991 RMK AO2 T01330122